Terminal Aerodrome Forecast
Issued by NWS

Home | Current Version | Previous Version | Graphics & Text | Print | Product List | Glossary On
Versions: 1 2 3 4 5 6 7 8 9 10 11 12 13
000
FTUS45 KGGW 252325
TAFGDV
TAF
KGDV 252325Z 2600/2624 06009KT P6SM BKN045
     FM260700 06006KT P6SM BKN030
     FM261100 05005KT P6SM BKN023
     FM261700 09007KT P6SM SCT030=

USA.gov is the U.S. government's official web portal to all federal, state and local government web resources and services.